createdAt,value
2023-04-21T00:01:23.165Z,40.27
2023-04-21T00:03:50.768Z,36.58
2023-04-21T00:06:23.492Z,38.23
2023-04-21T00:08:50.703Z,43.13
2023-04-21T00:11:17.805Z,39.07
2023-04-21T00:13:44.533Z,40.63
2023-04-21T00:16:11.094Z,41.70
2023-04-21T00:18:37.685Z,41.28
2023-04-21T00:21:04.414Z,41.77
2023-04-21T00:23:30.903Z,42.00
2023-04-21T00:25:57.403Z,42.47
2023-04-21T00:28:24.103Z,41.90
2023-04-21T00:30:50.580Z,43.27
2023-04-21T00:33:17.012Z,40.97
2023-04-21T00:35:43.464Z,42.80
2023-04-21T00:38:09.902Z,44.60
2023-04-21T00:40:36.438Z,45.87
2023-04-21T00:43:06.512Z,43.63
2023-04-21T00:45:33.294Z,46.73
2023-04-21T00:47:59.802Z,47.03
2023-04-21T00:50:27.937Z,47.30
2023-04-21T00:52:56.113Z,49.27
2023-04-21T00:55:22.800Z,50.80
2023-04-21T00:57:52.094Z,50.07
2023-04-21T01:00:19.045Z,51.07
2023-04-21T01:02:45.896Z,53.27
2023-04-21T01:05:12.761Z,50.45
2023-04-21T01:07:39.444Z,52.17
2023-04-21T01:10:06.590Z,52.00
2023-04-21T01:12:33.007Z,55.47
2023-04-21T01:14:59.527Z,51.55
2023-04-21T01:17:26.947Z,53.23
2023-04-21T01:19:58.236Z,53.47
2023-04-21T01:22:24.754Z,50.87
2023-04-21T01:24:51.793Z,51.07
2023-04-21T01:27:20.205Z,51.40
2023-04-21T01:29:49.183Z,48.93
2023-04-21T01:32:20.253Z,49.03
2023-04-21T01:34:48.125Z,45.77
2023-04-21T01:37:18.688Z,48.27
2023-04-21T01:39:48.178Z,47.17
2023-04-21T01:42:14.665Z,48.93
2023-04-21T01:44:41.196Z,50.40
2023-04-21T01:47:08.915Z,49.57
2023-04-21T01:49:35.429Z,49.90
2023-04-21T01:52:01.854Z,52.23
2023-04-21T01:54:28.417Z,49.50
2023-04-21T01:56:54.990Z,49.10
2023-04-21T01:59:21.836Z,51.83
2023-04-21T02:01:48.520Z,45.83
2023-04-21T02:04:15.238Z,47.03
2023-04-21T02:06:41.863Z,51.20
2023-04-21T02:09:08.441Z,47.53
2023-04-21T02:11:34.968Z,49.93
2023-04-21T02:14:01.610Z,47.93
2023-04-21T02:16:28.216Z,48.93
2023-04-21T02:19:03.296Z,51.33
2023-04-21T02:21:29.908Z,52.10
2023-04-21T02:23:56.468Z,52.07
2023-04-21T02:26:23.654Z,50.77
2023-04-21T02:28:51.161Z,53.07
2023-04-21T02:31:18.732Z,51.10
2023-04-21T02:33:46.097Z,59.00
2023-04-21T02:36:12.895Z,56.73
2023-04-21T02:38:39.359Z,54.90
2023-04-21T02:41:05.818Z,58.90
2023-04-21T02:43:32.335Z,60.33
2023-04-21T02:45:58.816Z,59.17
2023-04-21T02:48:25.408Z,60.90
2023-04-21T02:50:53.375Z,59.83
2023-04-21T02:53:20.638Z,64.70
2023-04-21T02:55:47.236Z,63.40
2023-04-21T02:58:14.428Z,66.07
2023-04-21T03:00:41.219Z,65.17
2023-04-21T03:03:08.003Z,69.47
2023-04-21T03:05:34.674Z,68.20
2023-04-21T03:08:01.171Z,64.97
2023-04-21T03:10:27.660Z,66.77
2023-04-21T03:12:54.181Z,64.27
2023-04-21T03:15:20.992Z,64.33
2023-04-21T03:17:47.502Z,66.07
2023-04-21T03:20:14.016Z,70.90
2023-04-21T03:22:40.514Z,69.47
2023-04-21T03:25:07.785Z,71.83
2023-04-21T03:27:35.139Z,69.57
2023-04-21T03:30:01.697Z,65.63
2023-04-21T03:32:28.518Z,71.80
2023-04-21T03:34:55.027Z,61.63
2023-04-21T03:37:21.456Z,65.27
2023-04-21T03:39:47.942Z,64.60
2023-04-21T03:42:14.467Z,60.27
2023-04-21T03:44:40.917Z,59.67
2023-04-21T03:47:07.346Z,57.83
2023-04-21T03:49:34.886Z,65.13
2023-04-21T03:52:01.463Z,65.17
2023-04-21T03:54:28.022Z,64.43
2023-04-21T03:56:54.594Z,65.87
2023-04-21T03:59:21.440Z,69.50
2023-04-21T04:01:48.119Z,62.67
2023-04-21T04:04:14.879Z,66.43
2023-04-21T04:06:41.790Z,75.27
2023-04-21T04:09:09.187Z,72.67
2023-04-21T04:11:35.992Z,74.87
2023-04-21T04:14:02.528Z,69.80
2023-04-21T04:16:29.359Z,66.17
2023-04-21T04:18:56.480Z,62.83
2023-04-21T04:21:22.957Z,70.43
2023-04-21T04:23:51.784Z,64.77
2023-04-21T04:26:19.065Z,73.10
2023-04-21T04:28:46.150Z,68.00
2023-04-21T04:31:13.796Z,72.17
2023-04-21T04:33:44.125Z,60.00
2023-04-21T04:36:12.038Z,67.40
2023-04-21T04:38:38.727Z,57.83
2023-04-21T04:41:06.289Z,59.53
2023-04-21T04:43:41.844Z,64.10
2023-04-21T04:46:09.483Z,59.80
2023-04-21T04:48:35.989Z,64.70
2023-04-21T04:51:02.471Z,62.03
2023-04-21T04:53:29.493Z,66.33
2023-04-21T04:55:57.586Z,54.93
2023-04-21T04:58:24.447Z,54.30
2023-04-21T05:00:51.284Z,52.70
2023-04-21T05:03:17.962Z,51.33
2023-04-21T05:05:46.098Z,53.47
2023-04-21T05:08:12.621Z,53.13
2023-04-21T05:10:39.146Z,52.23
2023-04-21T05:13:05.672Z,50.63
2023-04-21T05:15:32.165Z,50.50
2023-04-21T05:17:58.661Z,47.53
2023-04-21T05:20:25.344Z,46.07
2023-04-21T05:22:51.809Z,49.20
2023-04-21T05:25:18.277Z,43.87
2023-04-21T05:27:44.812Z,44.47
2023-04-21T05:30:11.587Z,45.33
2023-04-21T05:32:38.317Z,45.47
2023-04-21T05:35:05.108Z,42.77
2023-04-21T05:37:31.696Z,40.30
2023-04-21T05:39:58.290Z,38.47
2023-04-21T05:42:24.728Z,41.30
2023-04-21T05:44:51.214Z,33.97
2023-04-21T05:47:17.698Z,37.50
2023-04-21T05:49:50.074Z,31.25
2023-04-21T05:52:17.744Z,31.15
2023-04-21T05:54:44.241Z,28.85
2023-04-21T05:57:10.837Z,25.60
2023-04-21T05:59:37.327Z,26.38
2023-04-21T06:02:04.285Z,24.88
2023-04-21T06:04:31.164Z,25.98
2023-04-21T06:06:57.795Z,23.73
2023-04-21T06:09:24.256Z,21.88
2023-04-21T06:11:50.798Z,23.73
2023-04-21T06:14:17.531Z,23.92
2023-04-21T06:16:44.261Z,21.15
2023-04-21T06:19:11.234Z,18.95
2023-04-21T06:21:37.707Z,21.20
2023-04-21T06:24:04.432Z,20.83
2023-04-21T06:26:30.910Z,19.88
2023-04-21T06:28:57.316Z,21.25
2023-04-21T06:31:23.823Z,17.90
2023-04-21T06:33:50.287Z,19.45
2023-04-21T06:36:18.094Z,19.75
2023-04-21T06:38:44.774Z,18.38
2023-04-21T06:41:11.254Z,18.45
2023-04-21T06:43:37.844Z,15.48
2023-04-21T06:46:04.372Z,15.75
2023-04-21T06:48:31.119Z,14.70
2023-04-21T06:50:57.612Z,17.65
2023-04-21T06:53:24.348Z,17.42
2023-04-21T06:55:53.595Z,17.30
2023-04-21T06:58:21.491Z,17.35
2023-04-21T07:00:48.195Z,17.23
2023-04-21T07:03:14.889Z,17.65
2023-04-21T07:05:41.379Z,15.93
2023-04-21T07:08:07.853Z,15.05
2023-04-21T07:10:34.299Z,18.38
2023-04-21T07:13:00.818Z,16.25
2023-04-21T07:15:27.268Z,15.32
2023-04-21T07:17:53.815Z,16.52
2023-04-21T07:20:20.482Z,14.95
2023-04-21T07:22:46.934Z,16.75
2023-04-21T07:25:13.437Z,16.98
2023-04-21T07:27:40.218Z,14.88
2023-04-21T07:30:07.698Z,15.77
2023-04-21T07:32:35.133Z,16.60
2023-04-21T07:35:02.693Z,13.85
2023-04-21T07:37:29.423Z,17.73
2023-04-21T07:39:55.901Z,17.65
2023-04-21T07:42:22.593Z,15.82
2023-04-21T07:44:49.183Z,15.32
2023-04-21T07:47:15.691Z,16.92
2023-04-21T07:49:42.168Z,14.88
2023-04-21T07:52:08.879Z,14.40
2023-04-21T07:54:35.623Z,14.13
2023-04-21T07:57:02.633Z,14.05
2023-04-21T07:59:29.348Z,13.70
2023-04-21T08:01:56.473Z,13.23
2023-04-21T08:04:23.385Z,14.15
2023-04-21T08:06:50.348Z,14.27
2023-04-21T08:09:17.217Z,13.95
2023-04-21T08:11:43.874Z,11.85
2023-04-21T08:14:11.894Z,13.40
2023-04-21T08:16:40.349Z,13.75
2023-04-21T08:19:08.182Z,13.23
2023-04-21T08:21:35.606Z,12.52
2023-04-21T08:24:02.632Z,12.50
2023-04-21T08:26:30.260Z,13.45
2023-04-21T08:28:57.321Z,13.90
2023-04-21T08:31:23.943Z,14.73
2023-04-21T08:34:00.287Z,11.02
2023-04-21T08:36:29.983Z,12.75
2023-04-21T08:38:57.463Z,10.15
2023-04-21T08:41:24.806Z,11.10
2023-04-21T08:43:51.447Z,10.57
2023-04-21T08:46:19.693Z,10.88
2023-04-21T08:48:47.138Z,10.43
2023-04-21T08:51:20.965Z,12.85
2023-04-21T08:53:47.417Z,10.88
2023-04-21T08:56:13.877Z,9.88
2023-04-21T08:58:41.538Z,11.25
2023-04-21T09:01:08.101Z,9.98
2023-04-21T09:03:34.841Z,11.25
2023-04-21T09:06:06.829Z,12.55
2023-04-21T09:08:38.004Z,12.25
2023-04-21T09:11:04.689Z,12.45
2023-04-21T09:13:37.991Z,11.82
2023-04-21T09:16:15.256Z,13.02
2023-04-21T09:18:44.183Z,13.25
2023-04-21T09:21:16.214Z,12.20
2023-04-21T09:23:50.856Z,13.93
2023-04-21T09:26:19.330Z,12.02
2023-04-21T09:28:47.554Z,12.10
2023-04-21T09:31:16.949Z,12.90
2023-04-21T09:33:59.281Z,12.10
2023-04-21T09:36:29.703Z,13.13
2023-04-21T09:39:20.658Z,12.48
2023-04-21T09:41:44.860Z,9.57
2023-04-21T09:44:11.456Z,8.57
2023-04-21T09:46:43.621Z,12.70
2023-04-21T09:49:13.805Z,9.35
2023-04-21T09:52:05.872Z,9.40
2023-04-21T09:54:34.555Z,8.48
2023-04-21T09:57:03.919Z,12.48
2023-04-21T09:59:37.007Z,9.68
2023-04-21T10:02:08.158Z,9.75
2023-04-21T10:04:37.237Z,11.35
2023-04-21T10:07:04.559Z,11.60
2023-04-21T10:09:41.569Z,11.38
2023-04-21T10:12:09.987Z,10.18
2023-04-21T10:14:36.929Z,10.90
2023-04-21T10:17:08.555Z,9.77
2023-04-21T10:19:40.615Z,11.48
2023-04-21T10:22:10.843Z,8.65
2023-04-21T10:24:39.655Z,8.07
2023-04-21T10:27:09.341Z,9.70
2023-04-21T10:32:08.398Z,9.65
2023-04-21T10:34:37.946Z,10.25
2023-04-21T10:37:04.741Z,9.20
2023-04-21T10:39:35.799Z,7.65
2023-04-21T10:42:18.143Z,8.05
2023-04-21T10:44:52.078Z,9.23
2023-04-21T10:47:46.006Z,9.82
2023-04-21T10:50:18.455Z,8.98
2023-04-21T10:53:04.317Z,10.25
2023-04-21T10:55:30.798Z,7.90
2023-04-21T10:58:01.902Z,9.10
2023-04-21T11:00:29.275Z,9.18
2023-04-21T11:03:04.189Z,8.80
2023-04-21T11:05:38.427Z,9.02
2023-04-21T11:08:05.292Z,9.35
2023-04-21T11:10:45.902Z,9.52
2023-04-21T11:13:12.461Z,8.18
2023-04-21T11:15:38.871Z,8.57
2023-04-21T11:18:07.336Z,9.32
2023-04-21T11:20:33.974Z,9.70
2023-04-21T11:23:00.658Z,9.60
2023-04-21T11:25:27.173Z,9.98
2023-04-21T11:27:55.869Z,9.50
2023-04-21T11:30:32.794Z,5.45
2023-04-21T11:32:59.667Z,6.20
2023-04-21T11:35:26.303Z,6.70
2023-04-21T11:37:52.881Z,7.28
2023-04-21T11:40:19.569Z,7.00
2023-04-21T11:42:46.359Z,6.95
2023-04-21T11:45:22.152Z,7.63
2023-04-21T11:47:49.415Z,7.00
2023-04-21T11:50:31.791Z,8.02
2023-04-21T11:52:58.403Z,6.68
2023-04-21T11:55:24.961Z,5.45
2023-04-21T11:57:52.053Z,5.22
2023-04-21T12:00:19.147Z,5.43
2023-04-21T12:02:54.533Z,4.95
2023-04-21T12:05:21.968Z,5.20
2023-04-21T12:07:48.905Z,5.78
2023-04-21T12:10:19.169Z,4.78
2023-04-21T12:12:46.179Z,5.18
2023-04-21T12:15:19.230Z,4.20
2023-04-21T12:17:47.919Z,4.22
2023-04-21T12:20:19.623Z,4.85
2023-04-21T12:22:46.754Z,4.63
2023-04-21T12:25:13.925Z,3.88
2023-04-21T12:27:54.066Z,4.70
2023-04-21T12:30:21.677Z,3.92
2023-04-21T12:32:48.784Z,3.53
2023-04-21T12:35:15.459Z,4.15
2023-04-21T12:37:41.942Z,4.18
2023-04-21T12:40:08.968Z,3.80
2023-04-21T12:42:37.842Z,3.97
2023-04-21T12:45:05.660Z,3.88
2023-04-21T12:47:32.329Z,3.35
2023-04-21T12:50:00.411Z,3.20
2023-04-21T12:52:27.015Z,3.75
2023-04-21T12:54:53.702Z,3.13
2023-04-21T12:57:21.287Z,3.25
2023-04-21T12:59:48.130Z,4.43
2023-04-21T13:02:14.989Z,2.70
2023-04-21T13:04:42.523Z,2.47
2023-04-21T13:07:09.638Z,2.78
2023-04-21T13:09:36.193Z,4.22
2023-04-21T13:12:03.147Z,3.38
2023-04-21T13:14:30.256Z,3.92
2023-04-21T13:16:56.976Z,3.22
2023-04-21T13:19:23.487Z,3.50
2023-04-21T13:21:51.488Z,4.10
2023-04-21T13:24:20.104Z,4.53
2023-04-21T13:26:46.577Z,4.30
2023-04-21T13:29:13.144Z,4.97
2023-04-21T13:31:39.627Z,4.30
2023-04-21T13:34:06.177Z,6.85
2023-04-21T13:36:33.266Z,4.32
2023-04-21T13:39:00.744Z,3.95
2023-04-21T13:41:27.334Z,5.35
2023-04-21T13:43:53.790Z,3.15
2023-04-21T13:46:20.494Z,3.30
2023-04-21T13:48:47.087Z,5.03
2023-04-21T13:51:13.654Z,4.22
2023-04-21T13:53:41.158Z,4.00
2023-04-21T13:56:08.375Z,3.60
2023-04-21T13:58:35.809Z,5.40
2023-04-21T14:01:02.274Z,3.20
2023-04-21T14:03:29.100Z,3.45
2023-04-21T14:05:56.279Z,3.70
2023-04-21T14:08:23.077Z,4.47
2023-04-21T14:10:49.523Z,5.50
2023-04-21T14:13:33.104Z,4.15
2023-04-21T14:16:02.478Z,5.60
2023-04-21T14:18:29.678Z,4.18
2023-04-21T14:20:56.137Z,6.05
2023-04-21T14:23:22.578Z,6.35
2023-04-21T14:25:49.118Z,4.65
2023-04-21T14:28:15.793Z,5.90
2023-04-21T14:30:43.118Z,4.03
2023-04-21T14:33:09.836Z,5.05
2023-04-21T14:35:39.568Z,5.43
2023-04-21T14:38:06.101Z,5.45
2023-04-21T14:40:33.000Z,5.25
2023-04-21T14:42:59.531Z,5.78
2023-04-21T14:45:26.179Z,5.47
2023-04-21T14:47:53.119Z,4.45
2023-04-21T14:50:20.396Z,7.20
2023-04-21T14:52:49.500Z,6.55
2023-04-21T14:55:16.600Z,5.28
2023-04-21T14:57:43.257Z,4.57
2023-04-21T15:00:10.595Z,3.90
2023-04-21T15:02:37.251Z,5.03
2023-04-21T15:05:04.200Z,4.60
2023-04-21T15:07:30.663Z,4.78
2023-04-21T15:09:57.183Z,4.45
2023-04-21T15:12:23.826Z,5.50
2023-04-21T15:14:50.297Z,4.40
2023-04-21T15:17:16.778Z,4.60
2023-04-21T15:19:43.276Z,4.53
2023-04-21T15:22:10.519Z,3.38
2023-04-21T15:24:37.023Z,3.58
2023-04-21T15:27:04.019Z,3.15
2023-04-21T15:29:30.478Z,5.15
2023-04-21T15:31:57.176Z,3.22
2023-04-21T15:34:23.625Z,3.30
2023-04-21T15:36:50.070Z,3.53
2023-04-21T15:39:16.569Z,3.88
2023-04-21T15:41:43.122Z,2.88
2023-04-21T15:44:10.972Z,4.28
2023-04-21T15:46:37.526Z,3.20
2023-04-21T15:49:04.060Z,3.28
2023-04-21T15:51:34.927Z,2.80
2023-04-21T15:54:01.402Z,2.78
2023-04-21T15:56:27.945Z,2.72
2023-04-21T15:58:54.404Z,3.90
2023-04-21T16:01:22.321Z,2.50
2023-04-21T16:03:49.506Z,2.85
2023-04-21T16:06:16.652Z,3.70
2023-04-21T16:08:43.414Z,2.58
2023-04-21T16:11:10.095Z,2.40
2023-04-21T16:13:36.619Z,2.78
2023-04-21T16:16:03.153Z,2.60
2023-04-21T16:18:29.817Z,2.65
2023-04-21T16:20:56.372Z,4.03
2023-04-21T16:23:24.590Z,3.00
2023-04-21T16:25:51.117Z,2.85
2023-04-21T16:28:17.573Z,2.35
2023-04-21T16:30:45.148Z,2.45
2023-04-21T16:33:11.729Z,2.05
2023-04-21T16:35:39.085Z,2.50
2023-04-21T16:38:06.104Z,2.88
2023-04-21T16:40:33.166Z,2.47
2023-04-21T16:42:59.813Z,2.20
2023-04-21T16:45:28.128Z,2.15
2023-04-21T16:47:54.801Z,1.90
2023-04-21T16:50:22.204Z,2.50
2023-04-21T16:52:48.951Z,2.83
2023-04-21T16:55:15.523Z,2.80
2023-04-21T16:57:41.996Z,2.13
2023-04-21T17:00:09.560Z,2.40
2023-04-21T17:02:36.472Z,2.03
2023-04-21T17:05:03.935Z,5.15
2023-04-21T17:07:32.013Z,2.25
2023-04-21T17:09:58.606Z,2.30
2023-04-21T17:12:25.258Z,3.13
2023-04-21T17:14:51.889Z,1.95
2023-04-21T17:17:18.573Z,2.05
2023-04-21T17:19:45.097Z,2.17
2023-04-21T17:22:11.620Z,2.88
2023-04-21T17:24:51.811Z,4.90
2023-04-21T17:27:20.156Z,2.40
2023-04-21T17:29:46.947Z,3.00
2023-04-21T17:32:13.901Z,3.22
2023-04-21T17:34:40.624Z,2.25
2023-04-21T17:37:07.249Z,2.55
2023-04-21T17:39:33.728Z,2.38
2023-04-21T17:42:01.874Z,3.80
2023-04-21T17:44:28.328Z,3.25
2023-04-21T17:46:54.748Z,2.80
2023-04-21T17:49:22.971Z,2.13
2023-04-21T17:51:49.396Z,3.15
2023-04-21T17:54:16.865Z,2.35
2023-04-21T17:56:45.466Z,3.92
2023-04-21T17:59:12.176Z,4.50
2023-04-21T18:01:38.623Z,2.95
2023-04-21T18:04:05.335Z,4.35
2023-04-21T18:06:32.114Z,5.50
2023-04-21T18:08:58.573Z,2.50
2023-04-21T18:11:25.047Z,1.90
2023-04-21T18:13:51.711Z,1.92
2023-04-21T18:16:18.275Z,2.13
2023-04-21T18:18:44.851Z,1.90
2023-04-21T18:21:11.520Z,2.25
2023-04-21T18:23:37.989Z,2.50
2023-04-21T18:26:04.559Z,6.78
2023-04-21T18:28:31.911Z,8.18
2023-04-21T18:30:59.740Z,5.75
2023-04-21T18:33:26.625Z,5.63
2023-04-21T18:35:53.134Z,7.72
2023-04-21T18:38:19.762Z,4.10
2023-04-21T18:40:46.302Z,2.80
2023-04-21T18:43:12.796Z,2.20
2023-04-21T18:45:39.417Z,2.08
2023-04-21T18:48:05.931Z,1.70
2023-04-21T18:50:35.220Z,1.80
2023-04-21T18:53:03.127Z,1.65
2023-04-21T18:55:30.612Z,1.50
2023-04-21T18:57:57.087Z,1.50
2023-04-21T19:00:23.528Z,2.42
2023-04-21T19:02:51.277Z,1.67
2023-04-21T19:05:18.160Z,1.83
2023-04-21T19:07:44.602Z,1.95
2023-04-21T19:10:11.229Z,1.75
2023-04-21T19:12:37.937Z,2.80
2023-04-21T19:15:04.803Z,1.70
2023-04-21T19:17:31.282Z,2.55
2023-04-21T19:19:57.858Z,1.80
2023-04-21T19:22:24.349Z,1.70
2023-04-21T19:24:51.406Z,1.80
2023-04-21T19:27:17.886Z,2.58
2023-04-21T19:29:44.312Z,1.70
2023-04-21T19:32:10.858Z,1.55
2023-04-21T19:34:37.569Z,2.40
2023-04-21T19:37:04.476Z,1.70
2023-04-21T19:39:30.935Z,1.63
2023-04-21T19:41:57.951Z,2.53
2023-04-21T19:44:24.412Z,2.35
2023-04-21T19:46:51.131Z,1.63
2023-04-21T19:49:17.684Z,2.08
2023-04-21T19:51:44.115Z,1.60
2023-04-21T19:54:12.376Z,1.50
2023-04-21T19:56:39.770Z,1.80
2023-04-21T19:59:06.550Z,1.98
2023-04-21T20:01:36.411Z,1.60
2023-04-21T20:04:04.197Z,1.60
2023-04-21T20:06:32.014Z,1.60
2023-04-21T20:08:58.576Z,2.30
2023-04-21T20:11:27.494Z,1.55
2023-04-21T20:13:55.343Z,1.77
2023-04-21T20:16:21.857Z,2.05
2023-04-21T20:18:48.937Z,1.85
2023-04-21T20:21:15.775Z,2.13
2023-04-21T20:23:42.225Z,2.25
2023-04-21T20:26:08.714Z,2.30
2023-04-21T20:28:36.053Z,2.38
2023-04-21T20:31:02.687Z,2.67
2023-04-21T20:33:29.245Z,2.30
2023-04-21T20:35:56.928Z,1.92
2023-04-21T20:38:26.546Z,2.58
2023-04-21T20:40:53.312Z,2.10
2023-04-21T20:43:20.155Z,2.50
2023-04-21T20:45:50.323Z,2.10
2023-04-21T20:48:16.889Z,2.03
2023-04-21T20:50:45.745Z,2.50
2023-04-21T20:53:12.927Z,2.13
2023-04-21T20:55:39.475Z,4.65
2023-04-21T20:58:05.975Z,2.15
2023-04-21T21:00:34.371Z,2.50
2023-04-21T21:03:01.574Z,2.03
2023-04-21T21:05:30.269Z,2.00
2023-04-21T21:07:56.973Z,3.42
2023-04-21T21:10:23.452Z,2.63
2023-04-21T21:12:49.884Z,2.30
2023-04-21T21:15:16.564Z,4.05
2023-04-21T21:17:43.141Z,2.08
2023-04-21T21:20:10.383Z,1.60
2023-04-21T21:22:36.916Z,2.17
2023-04-21T21:25:03.701Z,2.33
2023-04-21T21:27:30.170Z,2.30
2023-04-21T21:29:56.613Z,3.33
2023-04-21T21:32:23.070Z,2.90
2023-04-21T21:34:52.052Z,4.72
2023-04-21T21:37:19.059Z,5.90
2023-04-21T21:39:45.610Z,5.63
2023-04-21T21:42:12.114Z,4.13
2023-04-21T21:44:38.638Z,3.10
2023-04-21T21:47:05.679Z,4.45
2023-04-21T21:49:32.542Z,3.70
2023-04-21T21:51:58.995Z,4.15
2023-04-21T21:54:25.458Z,4.20
2023-04-21T21:56:51.936Z,4.65
2023-04-21T21:59:18.384Z,3.35
2023-04-21T22:01:44.979Z,3.67
2023-04-21T22:04:11.631Z,4.75
2023-04-21T22:06:38.187Z,3.67
2023-04-21T22:09:05.173Z,3.92
2023-04-21T22:11:31.930Z,3.55
2023-04-21T22:14:07.731Z,3.22
2023-04-21T22:16:42.950Z,3.75
2023-04-21T22:19:10.528Z,3.83
2023-04-21T22:21:37.106Z,4.50
2023-04-21T22:24:03.915Z,3.75
2023-04-21T22:26:31.316Z,3.85
2023-04-21T22:28:57.793Z,4.22
2023-04-21T22:31:25.605Z,4.20
2023-04-21T22:33:52.103Z,4.28
2023-04-21T22:36:18.540Z,4.97
2023-04-21T22:38:45.719Z,4.43
2023-04-21T22:41:13.502Z,4.28
2023-04-21T22:43:39.993Z,5.38
2023-04-21T22:46:06.869Z,5.18
2023-04-21T22:48:36.216Z,4.40
2023-04-21T22:51:03.595Z,4.38
2023-04-21T22:53:30.342Z,4.47
2023-04-21T22:55:56.888Z,4.88
2023-04-21T22:58:24.259Z,4.10
2023-04-21T23:00:50.765Z,4.72
2023-04-21T23:03:17.532Z,4.20
2023-04-21T23:05:44.139Z,4.55
2023-04-21T23:08:10.664Z,5.07
2023-04-21T23:10:37.135Z,5.57
2023-04-21T23:13:03.578Z,4.80
2023-04-21T23:15:30.111Z,5.95
2023-04-21T23:17:56.594Z,5.60
2023-04-21T23:20:23.616Z,5.05
2023-04-21T23:22:50.328Z,4.72
2023-04-21T23:25:16.816Z,6.20
2023-04-21T23:27:43.885Z,5.68
2023-04-21T23:30:10.897Z,5.80
2023-04-21T23:32:37.462Z,5.20
2023-04-21T23:35:04.446Z,5.93
2023-04-21T23:37:30.990Z,5.05
2023-04-21T23:39:57.459Z,5.93
2023-04-21T23:42:23.942Z,4.90
2023-04-21T23:44:50.594Z,6.30
2023-04-21T23:47:17.010Z,7.28
2023-04-21T23:49:43.523Z,6.15
2023-04-21T23:52:10.389Z,5.30
2023-04-21T23:54:36.835Z,5.53
2023-04-21T23:57:03.447Z,6.38
2023-04-21T23:59:29.940Z,7.90
